sensor_id;sensor_type;location;lat;lon;timestamp;pressure;altitude;pressure_sealevel;temperature;humidity
79144;BME280;68551;47.484;19.092;2023-04-25T00:01:28;99318.69;;;13.13;67.48
79144;BME280;68551;47.484;19.092;2023-04-25T00:04:33;99315.63;;;13.04;67.36
79144;BME280;68551;47.484;19.092;2023-04-25T00:07:42;99313.16;;;13.03;67.85
79144;BME280;68551;47.484;19.092;2023-04-25T00:10:47;99301.66;;;13.06;67.13
79144;BME280;68551;47.484;19.092;2023-04-25T00:13:50;99305.59;;;13.15;66.73
79144;BME280;68551;47.484;19.092;2023-04-25T00:16:58;99310.69;;;13.06;66.24
79144;BME280;68551;47.484;19.092;2023-04-25T00:20:01;99305.78;;;13.03;66.48
79144;BME280;68551;47.484;19.092;2023-04-25T00:23:08;99300.03;;;13.00;65.94
79144;BME280;68551;47.484;19.092;2023-04-25T00:26:10;99304.97;;;13.03;66.19
79144;BME280;68551;47.484;19.092;2023-04-25T00:29:15;99297.81;;;12.97;66.13
79144;BME280;68551;47.484;19.092;2023-04-25T00:32:17;99307.09;;;12.96;66.43
79144;BME280;68551;47.484;19.092;2023-04-25T00:35:22;99281.38;;;12.87;66.26
79144;BME280;68551;47.484;19.092;2023-04-25T00:38:24;99299.41;;;12.88;66.59
79144;BME280;68551;47.484;19.092;2023-04-25T00:41:27;99292.31;;;12.87;65.87
79144;BME280;68551;47.484;19.092;2023-04-25T00:44:30;99288.13;;;12.74;67.12
79144;BME280;68551;47.484;19.092;2023-04-25T00:47:36;99279.13;;;12.73;67.52
79144;BME280;68551;47.484;19.092;2023-04-25T00:50:39;99285.16;;;12.75;67.05
79144;BME280;68551;47.484;19.092;2023-04-25T00:53:50;99286.84;;;12.87;66.51
79144;BME280;68551;47.484;19.092;2023-04-25T00:56:56;99267.09;;;12.79;66.11
79144;BME280;68551;47.484;19.092;2023-04-25T00:59:59;99268.22;;;12.84;66.59
79144;BME280;68551;47.484;19.092;2023-04-25T01:03:04;99273.72;;;12.89;66.43
79144;BME280;68551;47.484;19.092;2023-04-25T01:06:08;99251.53;;;12.80;65.89
79144;BME280;68551;47.484;19.092;2023-04-25T01:09:14;99260.53;;;12.75;67.01
79144;BME280;68551;47.484;19.092;2023-04-25T01:12:16;99259.94;;;12.68;66.27
79144;BME280;68551;47.484;19.092;2023-04-25T01:15:19;99265.44;;;12.73;66.20
79144;BME280;68551;47.484;19.092;2023-04-25T01:18:23;99285.97;;;12.76;66.44
79144;BME280;68551;47.484;19.092;2023-04-25T01:21:28;99261.56;;;12.64;66.52
79144;BME280;68551;47.484;19.092;2023-04-25T01:24:35;99267.03;;;12.64;66.71
79144;BME280;68551;47.484;19.092;2023-04-25T01:27:38;99269.78;;;12.69;66.71
79144;BME280;68551;47.484;19.092;2023-04-25T01:30:43;99260.53;;;12.75;66.62
79144;BME280;68551;47.484;19.092;2023-04-25T01:33:49;99244.06;;;12.60;65.82
79144;BME280;68551;47.484;19.092;2023-04-25T01:36:52;99251.75;;;12.68;66.53
79144;BME280;68551;47.484;19.092;2023-04-25T01:39:55;99258.56;;;12.61;66.27
79144;BME280;68551;47.484;19.092;2023-04-25T01:42:58;99258.47;;;12.51;66.76
79144;BME280;68551;47.484;19.092;2023-04-25T01:46:00;99259.63;;;12.60;67.18
79144;BME280;68551;47.484;19.092;2023-04-25T01:49:10;99276.81;;;12.55;67.59
79144;BME280;68551;47.484;19.092;2023-04-25T01:52:17;99256.00;;;12.44;67.51
79144;BME280;68551;47.484;19.092;2023-04-25T01:55:20;99267.44;;;12.41;67.82
79144;BME280;68551;47.484;19.092;2023-04-25T01:58:34;99269.38;;;12.46;67.61
79144;BME280;68551;47.484;19.092;2023-04-25T02:01:37;99257.06;;;12.43;67.27
79144;BME280;68551;47.484;19.092;2023-04-25T02:04:59;99262.78;;;12.41;67.39
79144;BME280;68551;47.484;19.092;2023-04-25T02:08:06;99257.03;;;12.38;67.30
79144;BME280;68551;47.484;19.092;2023-04-25T02:11:12;99268.81;;;12.43;67.52
79144;BME280;68551;47.484;19.092;2023-04-25T02:14:24;99257.28;;;12.36;66.05
79144;BME280;68551;47.484;19.092;2023-04-25T02:17:53;99266.63;;;12.40;66.30
79144;BME280;68551;47.484;19.092;2023-04-25T02:20:58;99247.94;;;12.27;66.57
79144;BME280;68551;47.484;19.092;2023-04-25T02:24:01;99259.19;;;12.36;66.70
79144;BME280;68551;47.484;19.092;2023-04-25T02:27:03;99262.50;;;12.38;66.76
79144;BME280;68551;47.484;19.092;2023-04-25T02:30:10;99269.59;;;12.39;66.53
79144;BME280;68551;47.484;19.092;2023-04-25T02:33:17;99264.66;;;12.31;66.63
79144;BME280;68551;47.484;19.092;2023-04-25T02:36:19;99253.66;;;12.26;65.52
79144;BME280;68551;47.484;19.092;2023-04-25T02:39:24;99261.66;;;12.32;65.75
79144;BME280;68551;47.484;19.092;2023-04-25T02:42:30;99265.22;;;12.33;65.19
79144;BME280;68551;47.484;19.092;2023-04-25T02:45:32;99249.81;;;12.22;66.15
79144;BME280;68551;47.484;19.092;2023-04-25T02:48:39;99269.53;;;12.29;66.02
79144;BME280;68551;47.484;19.092;2023-04-25T02:51:41;99272.28;;;12.29;65.52
79144;BME280;68551;47.484;19.092;2023-04-25T02:54:44;99262.44;;;12.28;64.95
79144;BME280;68551;47.484;19.092;2023-04-25T02:57:46;99264.59;;;12.26;64.33
79144;BME280;68551;47.484;19.092;2023-04-25T03:00:56;99262.50;;;12.38;63.63
79144;BME280;68551;47.484;19.092;2023-04-25T03:04:00;99253.16;;;12.29;63.68
79144;BME280;68551;47.484;19.092;2023-04-25T03:07:03;99263.00;;;12.30;63.97
79144;BME280;68551;47.484;19.092;2023-04-25T03:10:09;99264.66;;;12.36;63.34
79144;BME280;68551;47.484;19.092;2023-04-25T03:13:12;99255.94;;;12.34;64.01
79144;BME280;68551;47.484;19.092;2023-04-25T03:16:19;99257.56;;;12.35;64.16
79144;BME280;68551;47.484;19.092;2023-04-25T03:19:24;99255.84;;;12.24;64.44
79144;BME280;68551;47.484;19.092;2023-04-25T03:22:26;99245.41;;;12.16;64.82
79144;BME280;68551;47.484;19.092;2023-04-25T03:25:31;99250.25;;;12.08;64.83
79144;BME280;68551;47.484;19.092;2023-04-25T03:28:33;99252.72;;;12.05;64.78
79144;BME280;68551;47.484;19.092;2023-04-25T03:31:39;99249.16;;;12.04;64.83
79144;BME280;68551;47.484;19.092;2023-04-25T03:34:44;99260.84;;;12.00;66.14
79144;BME280;68551;47.484;19.092;2023-04-25T03:37:46;99249.63;;;11.96;65.08
79144;BME280;68551;47.484;19.092;2023-04-25T03:40:56;99245.75;;;11.87;65.11
79144;BME280;68551;47.484;19.092;2023-04-25T03:44:10;99262.72;;;11.94;65.66
79144;BME280;68551;47.484;19.092;2023-04-25T03:47:14;99246.31;;;11.89;65.35
79144;BME280;68551;47.484;19.092;2023-04-25T03:50:22;99253.94;;;11.87;65.48
79144;BME280;68551;47.484;19.092;2023-04-25T03:53:25;99256.41;;;11.89;65.31
79144;BME280;68551;47.484;19.092;2023-04-25T03:56:51;99263.19;;;11.86;65.82
79144;BME280;68551;47.484;19.092;2023-04-25T03:59:56;99278.50;;;11.87;65.47
79144;BME280;68551;47.484;19.092;2023-04-25T04:02:59;99263.13;;;11.76;66.37
79144;BME280;68551;47.484;19.092;2023-04-25T04:06:03;99269.06;;;11.73;65.66
79144;BME280;68551;47.484;19.092;2023-04-25T04:09:11;99259.22;;;11.72;65.71
79144;BME280;68551;47.484;19.092;2023-04-25T04:12:17;99278.94;;;11.79;65.79
79144;BME280;68551;47.484;19.092;2023-04-25T04:15:21;99264.44;;;11.73;65.12
79144;BME280;68551;47.484;19.092;2023-04-25T04:18:24;99273.56;;;11.84;65.26
79144;BME280;68551;47.484;19.092;2023-04-25T04:21:30;99279.00;;;11.84;65.83
79144;BME280;68551;47.484;19.092;2023-04-25T04:24:34;99277.16;;;11.90;66.31
79144;BME280;68551;47.484;19.092;2023-04-25T04:27:40;99265.38;;;11.84;65.97
79144;BME280;68551;47.484;19.092;2023-04-25T04:30:59;99275.09;;;11.75;66.32
79144;BME280;68551;47.484;19.092;2023-04-25T04:34:03;99290.84;;;11.68;67.40
79144;BME280;68551;47.484;19.092;2023-04-25T04:37:08;99279.31;;;11.61;67.29
79144;BME280;68551;47.484;19.092;2023-04-25T04:40:12;99287.13;;;11.52;67.16
79144;BME280;68551;47.484;19.092;2023-04-25T04:43:23;99295.59;;;11.51;68.10
79144;BME280;68551;47.484;19.092;2023-04-25T04:46:52;99280.25;;;11.45;68.24
79144;BME280;68551;47.484;19.092;2023-04-25T04:50:01;99285.75;;;11.50;67.85
79144;BME280;68551;47.484;19.092;2023-04-25T04:53:32;99277.44;;;11.40;67.97
79144;BME280;68551;47.484;19.092;2023-04-25T04:56:51;99283.28;;;11.48;68.38
79144;BME280;68551;47.484;19.092;2023-04-25T05:00:11;99291.31;;;11.60;67.95
79144;BME280;68551;47.484;19.092;2023-04-25T05:03:34;99284.69;;;11.51;69.72
79144;BME280;68551;47.484;19.092;2023-04-25T05:06:49;99294.19;;;11.48;69.66
79144;BME280;68551;47.484;19.092;2023-04-25T05:10:21;99289.19;;;11.40;70.77
79144;BME280;68551;47.484;19.092;2023-04-25T05:13:41;99290.78;;;11.36;70.99
79144;BME280;68551;47.484;19.092;2023-04-25T05:17:12;99290.41;;;11.27;69.95
79144;BME280;68551;47.484;19.092;2023-04-25T05:20:40;99303.69;;;11.19;71.00
79144;BME280;68551;47.484;19.092;2023-04-25T05:23:49;99297.16;;;11.20;70.97
79144;BME280;68551;47.484;19.092;2023-04-25T05:26:57;99295.75;;;11.17;71.29
79144;BME280;68551;47.484;19.092;2023-04-25T05:30:37;99302.59;;;11.20;70.98
79144;BME280;68551;47.484;19.092;2023-04-25T05:34:01;99303.28;;;11.32;71.81
79144;BME280;68551;47.484;19.092;2023-04-25T05:37:25;99301.69;;;11.14;71.12
79144;BME280;68551;47.484;19.092;2023-04-25T05:40:30;99299.19;;;11.08;72.34
79144;BME280;68551;47.484;19.092;2023-04-25T05:43:48;99290.03;;;10.97;72.49
79144;BME280;68551;47.484;19.092;2023-04-25T05:46:59;99298.22;;;10.97;72.55
79144;BME280;68551;47.484;19.092;2023-04-25T05:50:33;99296.03;;;10.94;73.67
79144;BME280;68551;47.484;19.092;2023-04-25T05:53:44;99295.13;;;10.88;74.79
79144;BME280;68551;47.484;19.092;2023-04-25T05:56:51;99298.53;;;10.79;73.73
79144;BME280;68551;47.484;19.092;2023-04-25T05:59:56;99299.53;;;10.73;75.62
79144;BME280;68551;47.484;19.092;2023-04-25T06:03:14;99310.69;;;10.71;76.16
79144;BME280;68551;47.484;19.092;2023-04-25T06:06:25;99311.38;;;10.83;76.83
79144;BME280;68551;47.484;19.092;2023-04-25T06:09:35;99306.72;;;10.79;75.96
79144;BME280;68551;47.484;19.092;2023-04-25T06:12:38;99319.88;;;10.87;75.73
79144;BME280;68551;47.484;19.092;2023-04-25T06:15:43;99318.81;;;10.88;75.93
79144;BME280;68551;47.484;19.092;2023-04-25T06:18:49;99306.63;;;10.74;75.56
79144;BME280;68551;47.484;19.092;2023-04-25T06:21:51;99326.53;;;10.96;75.96
79144;BME280;68551;47.484;19.092;2023-04-25T06:24:56;99319.44;;;10.95;76.35
79144;BME280;68551;47.484;19.092;2023-04-25T06:28:01;99328.91;;;11.09;75.36
79144;BME280;68551;47.484;19.092;2023-04-25T06:31:12;99324.66;;;11.18;76.35
79144;BME280;68551;47.484;19.092;2023-04-25T06:34:18;99326.44;;;11.29;75.58
79144;BME280;68551;47.484;19.092;2023-04-25T06:37:20;99327.56;;;11.33;73.46
79144;BME280;68551;47.484;19.092;2023-04-25T06:40:25;99316.03;;;11.26;73.42
79144;BME280;68551;47.484;19.092;2023-04-25T06:43:27;99320.50;;;11.37;75.14
79144;BME280;68551;47.484;19.092;2023-04-25T06:46:46;99326.03;;;11.43;73.57
79144;BME280;68551;47.484;19.092;2023-04-25T06:49:50;99332.75;;;11.57;73.30
79144;BME280;68551;47.484;19.092;2023-04-25T06:52:54;99313.38;;;11.58;72.70
79144;BME280;68551;47.484;19.092;2023-04-25T06:56:00;99323.16;;;11.76;73.55
79144;BME280;68551;47.484;19.092;2023-04-25T06:59:27;99328.47;;;11.88;71.98
79144;BME280;68551;47.484;19.092;2023-04-25T07:02:29;99334.00;;;11.98;72.03
79144;BME280;68551;47.484;19.092;2023-04-25T07:05:33;99331.03;;;11.99;71.69
79144;BME280;68551;47.484;19.092;2023-04-25T07:08:38;99311.78;;;12.16;71.74
79144;BME280;68551;47.484;19.092;2023-04-25T07:11:42;99309.91;;;12.22;71.07
79144;BME280;68551;47.484;19.092;2023-04-25T07:14:45;99329.69;;;12.39;69.85
79144;BME280;68551;47.484;19.092;2023-04-25T07:17:47;99329.81;;;12.49;70.44
79144;BME280;68551;47.484;19.092;2023-04-25T07:20:50;99323.28;;;12.55;69.09
79144;BME280;68551;47.484;19.092;2023-04-25T07:23:53;99327.03;;;12.44;69.62
79144;BME280;68551;47.484;19.092;2023-04-25T07:27:00;99330.59;;;12.50;69.64
79144;BME280;68551;47.484;19.092;2023-04-25T07:30:38;99327.59;;;12.51;69.52
79144;BME280;68551;47.484;19.092;2023-04-25T07:33:40;99338.13;;;12.69;69.30
79144;BME280;68551;47.484;19.092;2023-04-25T07:36:43;99332.03;;;12.57;68.80
79144;BME280;68551;47.484;19.092;2023-04-25T07:39:47;99328.06;;;12.75;68.30
79144;BME280;68551;47.484;19.092;2023-04-25T07:42:55;99339.03;;;12.85;67.81
79144;BME280;68551;47.484;19.092;2023-04-25T07:46:13;99341.59;;;13.07;66.93
79144;BME280;68551;47.484;19.092;2023-04-25T07:49:20;99305.97;;;12.92;66.50
79144;BME280;68551;47.484;19.092;2023-04-25T07:52:24;99329.13;;;13.16;66.35
79144;BME280;68551;47.484;19.092;2023-04-25T07:55:35;99333.00;;;13.30;64.04
79144;BME280;68551;47.484;19.092;2023-04-25T07:58:52;99331.94;;;13.31;63.39
79144;BME280;68551;47.484;19.092;2023-04-25T08:01:59;99327.53;;;13.35;63.62
79144;BME280;68551;47.484;19.092;2023-04-25T08:05:12;99333.59;;;13.42;63.40
79144;BME280;68551;47.484;19.092;2023-04-25T08:08:23;99333.63;;;13.63;62.76
79144;BME280;68551;47.484;19.092;2023-04-25T08:11:36;99333.16;;;13.86;60.88
79144;BME280;68551;47.484;19.092;2023-04-25T08:14:40;99343.06;;;14.12;61.29
79144;BME280;68551;47.484;19.092;2023-04-25T08:17:45;99337.59;;;14.28;59.00
79144;BME280;68551;47.484;19.092;2023-04-25T08:20:50;99340.03;;;14.85;58.62
79144;BME280;68551;47.484;19.092;2023-04-25T08:23:53;99335.19;;;15.36;57.70
79144;BME280;68551;47.484;19.092;2023-04-25T08:27:04;99336.28;;;15.40;56.80
79144;BME280;68551;47.484;19.092;2023-04-25T08:30:09;99322.56;;;15.35;55.73
79144;BME280;68551;47.484;19.092;2023-04-25T08:33:14;99327.38;;;14.99;56.78
79144;BME280;68551;47.484;19.092;2023-04-25T08:36:24;99338.69;;;14.62;58.45
79144;BME280;68551;47.484;19.092;2023-04-25T08:39:49;99333.22;;;14.47;58.01
79144;BME280;68551;47.484;19.092;2023-04-25T08:42:57;99347.16;;;14.76;58.69
79144;BME280;68551;47.484;19.092;2023-04-25T08:46:00;99342.50;;;14.86;57.29
79144;BME280;68551;47.484;19.092;2023-04-25T08:49:25;99359.19;;;14.90;55.85
79144;BME280;68551;47.484;19.092;2023-04-25T08:52:35;99347.06;;;15.16;55.92
79144;BME280;68551;47.484;19.092;2023-04-25T08:55:40;99351.75;;;15.11;56.38
79144;BME280;68551;47.484;19.092;2023-04-25T08:58:44;99353.19;;;14.78;56.54
79144;BME280;68551;47.484;19.092;2023-04-25T09:01:56;99352.69;;;14.40;57.17
79144;BME280;68551;47.484;19.092;2023-04-25T09:05:02;99352.41;;;14.42;56.45
79144;BME280;68551;47.484;19.092;2023-04-25T09:08:11;99343.59;;;14.35;57.42
79144;BME280;68551;47.484;19.092;2023-04-25T09:11:17;99352.25;;;15.18;56.78
79144;BME280;68551;47.484;19.092;2023-04-25T09:14:23;99347.81;;;15.37;54.83
79144;BME280;68551;47.484;19.092;2023-04-25T09:17:55;99352.09;;;15.64;53.96
79144;BME280;68551;47.484;19.092;2023-04-25T09:21:10;99349.56;;;16.16;52.93
79144;BME280;68551;47.484;19.092;2023-04-25T09:24:43;99349.81;;;16.20;52.11
79144;BME280;68551;47.484;19.092;2023-04-25T09:27:50;99361.09;;;16.23;51.53
79144;BME280;68551;47.484;19.092;2023-04-25T09:31:00;99352.84;;;15.84;52.77
79144;BME280;68551;47.484;19.092;2023-04-25T09:34:17;99351.94;;;15.94;52.32
79144;BME280;68551;47.484;19.092;2023-04-25T09:37:33;99338.34;;;16.47;52.00
79144;BME280;68551;47.484;19.092;2023-04-25T09:40:54;99338.66;;;16.74;50.26
79144;BME280;68551;47.484;19.092;2023-04-25T09:44:06;99342.06;;;15.88;51.38
79144;BME280;68551;47.484;19.092;2023-04-25T09:47:15;99335.91;;;15.67;52.59
79144;BME280;68551;47.484;19.092;2023-04-25T09:50:20;99343.47;;;15.21;53.73
79144;BME280;68551;47.484;19.092;2023-04-25T09:53:27;99343.00;;;14.94;54.27
79144;BME280;68551;47.484;19.092;2023-04-25T09:56:48;99345.34;;;15.36;53.91
79144;BME280;68551;47.484;19.092;2023-04-25T09:59:55;99344.78;;;15.98;53.18
79144;BME280;68551;47.484;19.092;2023-04-25T10:03:01;99339.81;;;16.34;51.00
79144;BME280;68551;47.484;19.092;2023-04-25T10:06:34;99343.69;;;15.94;50.20
79144;BME280;68551;47.484;19.092;2023-04-25T10:09:38;99341.31;;;16.21;48.94
79144;BME280;68551;47.484;19.092;2023-04-25T10:12:44;99346.66;;;16.42;49.45
79144;BME280;68551;47.484;19.092;2023-04-25T10:15:49;99339.69;;;16.15;49.00
79144;BME280;68551;47.484;19.092;2023-04-25T10:18:57;99345.38;;;15.90;49.16
79144;BME280;68551;47.484;19.092;2023-04-25T10:22:11;99339.41;;;15.73;49.41
79144;BME280;68551;47.484;19.092;2023-04-25T10:25:17;99356.06;;;15.32;49.54
79144;BME280;68551;47.484;19.092;2023-04-25T10:28:24;99342.97;;;15.14;50.51
79144;BME280;68551;47.484;19.092;2023-04-25T10:31:34;99330.84;;;15.20;51.08
79144;BME280;68551;47.484;19.092;2023-04-25T10:34:48;99339.41;;;15.08;50.80
79144;BME280;68551;47.484;19.092;2023-04-25T10:38:10;99337.53;;;14.94;51.52
79144;BME280;68551;47.484;19.092;2023-04-25T10:41:14;99336.66;;;15.08;50.82
79144;BME280;68551;47.484;19.092;2023-04-25T10:44:19;99329.16;;;15.34;50.80
79144;BME280;68551;47.484;19.092;2023-04-25T10:47:36;99326.50;;;15.78;49.32
79144;BME280;68551;47.484;19.092;2023-04-25T10:50:45;99350.28;;;15.93;48.35
79144;BME280;68551;47.484;19.092;2023-04-25T10:54:06;99344.13;;;16.11;47.86
79144;BME280;68551;47.484;19.092;2023-04-25T11:00:42;99345.13;;;16.25;47.38
79144;BME280;68551;47.484;19.092;2023-04-25T11:04:01;99359.84;;;16.01;47.25
79144;BME280;68551;47.484;19.092;2023-04-25T11:10:33;99364.41;;;15.76;47.07
79144;BME280;68551;47.484;19.092;2023-04-25T11:13:40;99362.59;;;15.46;48.31
79144;BME280;68551;47.484;19.092;2023-04-25T11:16:42;99368.28;;;15.70;47.52
79144;BME280;68551;47.484;19.092;2023-04-25T11:19:48;99355.59;;;15.79;46.53
79144;BME280;68551;47.484;19.092;2023-04-25T11:22:56;99358.19;;;16.05;46.71
79144;BME280;68551;47.484;19.092;2023-04-25T11:25:59;99358.88;;;16.25;45.68
79144;BME280;68551;47.484;19.092;2023-04-25T11:29:04;99367.22;;;16.10;45.72
79144;BME280;68551;47.484;19.092;2023-04-25T11:32:07;99377.03;;;16.21;45.63
79144;BME280;68551;47.484;19.092;2023-04-25T11:35:12;99383.63;;;16.20;45.16
79144;BME280;68551;47.484;19.092;2023-04-25T11:38:17;99376.09;;;16.36;45.44
79144;BME280;68551;47.484;19.092;2023-04-25T11:41:25;99364.00;;;16.37;45.21
79144;BME280;68551;47.484;19.092;2023-04-25T11:44:28;99389.06;;;16.30;45.04
79144;BME280;68551;47.484;19.092;2023-04-25T11:47:31;99375.56;;;16.34;45.74
79144;BME280;68551;47.484;19.092;2023-04-25T11:50:33;99372.72;;;16.44;45.42
79144;BME280;68551;47.484;19.092;2023-04-25T11:53:36;99390.66;;;16.42;46.04
79144;BME280;68551;47.484;19.092;2023-04-25T11:56:44;99379.41;;;16.33;45.03
79144;BME280;68551;47.484;19.092;2023-04-25T11:59:52;99379.03;;;16.11;43.99
79144;BME280;68551;47.484;19.092;2023-04-25T12:02:58;99404.69;;;15.96;43.87
79144;BME280;68551;47.484;19.092;2023-04-25T12:06:03;99399.63;;;16.13;43.36
79144;BME280;68551;47.484;19.092;2023-04-25T12:09:11;99401.16;;;16.29;43.89
79144;BME280;68551;47.484;19.092;2023-04-25T12:12:17;99408.44;;;16.10;43.32
79144;BME280;68551;47.484;19.092;2023-04-25T12:15:26;99391.50;;;15.98;45.70
79144;BME280;68551;47.484;19.092;2023-04-25T12:18:30;99401.59;;;16.08;45.65
79144;BME280;68551;47.484;19.092;2023-04-25T12:21:35;99367.66;;;16.27;45.42
79144;BME280;68551;47.484;19.092;2023-04-25T12:25:01;99390.66;;;16.42;44.57
79144;BME280;68551;47.484;19.092;2023-04-25T12:28:36;99382.78;;;16.64;43.85
79144;BME280;68551;47.484;19.092;2023-04-25T12:31:44;99381.78;;;16.84;42.95
79144;BME280;68551;47.484;19.092;2023-04-25T12:34:47;99404.41;;;17.05;41.97
79144;BME280;68551;47.484;19.092;2023-04-25T12:37:52;99387.84;;;16.81;42.51
79144;BME280;68551;47.484;19.092;2023-04-25T12:40:54;99381.63;;;16.70;41.89
79144;BME280;68551;47.484;19.092;2023-04-25T12:43:57;99372.97;;;16.48;41.80
79144;BME280;68551;47.484;19.092;2023-04-25T12:47:01;99377.31;;;16.20;41.52
79144;BME280;68551;47.484;19.092;2023-04-25T12:50:05;99379.81;;;16.16;41.42
79144;BME280;68551;47.484;19.092;2023-04-25T12:53:09;99371.72;;;15.96;41.13
79144;BME280;68551;47.484;19.092;2023-04-25T12:56:14;99366.75;;;15.98;39.82
79144;BME280;68551;47.484;19.092;2023-04-25T12:59:18;99353.88;;;15.93;40.45
79144;BME280;68551;47.484;19.092;2023-04-25T13:02:23;99362.38;;;15.97;39.58
79144;BME280;68551;47.484;19.092;2023-04-25T13:05:26;99367.03;;;15.97;39.65
79144;BME280;68551;47.484;19.092;2023-04-25T13:08:31;99364.66;;;15.80;40.28
79144;BME280;68551;47.484;19.092;2023-04-25T13:11:36;99352.56;;;15.86;40.51
79144;BME280;68551;47.484;19.092;2023-04-25T13:14:39;99352.47;;;15.96;39.33
79144;BME280;68551;47.484;19.092;2023-04-25T13:17:46;99366.72;;;16.03;39.52
79144;BME280;68551;47.484;19.092;2023-04-25T13:20:52;99355.66;;;16.13;40.39
79144;BME280;68551;47.484;19.092;2023-04-25T13:23:58;99359.75;;;16.16;39.94
79144;BME280;68551;47.484;19.092;2023-04-25T13:27:03;99352.31;;;16.16;40.69
79144;BME280;68551;47.484;19.092;2023-04-25T13:30:09;99357.06;;;16.11;40.00
79144;BME280;68551;47.484;19.092;2023-04-25T13:33:11;99340.31;;;16.07;39.22
79144;BME280;68551;47.484;19.092;2023-04-25T13:36:14;99349.69;;;16.01;38.31
79144;BME280;68551;47.484;19.092;2023-04-25T13:39:16;99338.09;;;16.09;37.68
79144;BME280;68551;47.484;19.092;2023-04-25T13:42:19;99342.13;;;16.22;37.95
79144;BME280;68551;47.484;19.092;2023-04-25T13:45:21;99339.03;;;16.28;36.57
79144;BME280;68551;47.484;19.092;2023-04-25T13:48:24;99345.16;;;16.20;36.20
79144;BME280;68551;47.484;19.092;2023-04-25T13:51:26;99345.50;;;16.14;36.30
79144;BME280;68551;47.484;19.092;2023-04-25T13:54:36;99341.94;;;16.08;36.56
79144;BME280;68551;47.484;19.092;2023-04-25T13:57:40;99337.59;;;16.02;37.24
79144;BME280;68551;47.484;19.092;2023-04-25T14:00:45;99333.72;;;16.03;37.61
79144;BME280;68551;47.484;19.092;2023-04-25T14:03:48;99339.22;;;16.03;34.47
79144;BME280;68551;47.484;19.092;2023-04-25T14:06:51;99333.16;;;16.06;35.47
79144;BME280;68551;47.484;19.092;2023-04-25T14:09:57;99326.66;;;15.92;36.10
79144;BME280;68551;47.484;19.092;2023-04-25T14:13:00;99339.59;;;15.91;35.11
79144;BME280;68551;47.484;19.092;2023-04-25T14:16:05;99346.44;;;15.94;35.06
79144;BME280;68551;47.484;19.092;2023-04-25T14:19:08;99339.56;;;15.97;35.59
79144;BME280;68551;47.484;19.092;2023-04-25T14:22:10;99340.94;;;15.94;35.73
79144;BME280;68551;47.484;19.092;2023-04-25T14:25:15;99341.03;;;15.79;36.30
79144;BME280;68551;47.484;19.092;2023-04-25T14:28:17;99349.91;;;15.60;36.43
79144;BME280;68551;47.484;19.092;2023-04-25T14:31:20;99345.03;;;15.57;37.10
79144;BME280;68551;47.484;19.092;2023-04-25T14:34:25;99344.41;;;15.66;37.19
79144;BME280;68551;47.484;19.092;2023-04-25T14:37:30;99351.81;;;15.70;37.59
79144;BME280;68551;47.484;19.092;2023-04-25T14:40:37;99336.19;;;15.66;37.54
79144;BME280;68551;47.484;19.092;2023-04-25T14:43:40;99346.31;;;15.70;37.94
79144;BME280;68551;47.484;19.092;2023-04-25T14:46:45;99324.09;;;15.67;38.16
79144;BME280;68551;47.484;19.092;2023-04-25T14:49:50;99333.72;;;15.64;38.56
79144;BME280;68551;47.484;19.092;2023-04-25T14:52:57;99336.16;;;15.71;38.17
79144;BME280;68551;47.484;19.092;2023-04-25T14:56:00;99336.09;;;15.76;37.63
79144;BME280;68551;47.484;19.092;2023-04-25T14:59:08;99337.25;;;15.70;37.73
79144;BME280;68551;47.484;19.092;2023-04-25T15:02:10;99331.78;;;15.70;37.63
79144;BME280;68551;47.484;19.092;2023-04-25T15:05:15;99338.91;;;15.71;37.94
79144;BME280;68551;47.484;19.092;2023-04-25T15:08:20;99350.38;;;15.83;37.28
79144;BME280;68551;47.484;19.092;2023-04-25T15:11:23;99339.94;;;15.80;37.23
79144;BME280;68551;47.484;19.092;2023-04-25T15:14:26;99336.56;;;15.88;37.26
79144;BME280;68551;47.484;19.092;2023-04-25T15:17:28;99338.94;;;16.05;36.96
79144;BME280;68551;47.484;19.092;2023-04-25T15:20:33;99345.31;;;16.00;37.26
79144;BME280;68551;47.484;19.092;2023-04-25T15:23:39;99309.09;;;15.88;37.24
79144;BME280;68551;47.484;19.092;2023-04-25T15:26:41;99346.09;;;16.01;37.49
79144;BME280;68551;47.484;19.092;2023-04-25T15:29:45;99352.50;;;15.91;37.26
79144;BME280;68551;47.484;19.092;2023-04-25T15:32:48;99339.31;;;15.88;37.32
79144;BME280;68551;47.484;19.092;2023-04-25T15:35:50;99331.13;;;15.83;36.84
79144;BME280;68551;47.484;19.092;2023-04-25T15:38:55;99350.38;;;15.83;37.66
79144;BME280;68551;47.484;19.092;2023-04-25T15:41:57;99353.66;;;15.85;38.17
79144;BME280;68551;47.484;19.092;2023-04-25T15:45:02;99349.81;;;15.86;38.28
79144;BME280;68551;47.484;19.092;2023-04-25T15:48:07;99349.25;;;15.84;38.83
79144;BME280;68551;47.484;19.092;2023-04-25T15:51:12;99348.53;;;15.68;38.32
79144;BME280;68551;47.484;19.092;2023-04-25T15:54:19;99349.91;;;15.66;38.35
79144;BME280;68551;47.484;19.092;2023-04-25T15:57:21;99347.16;;;15.66;39.18
79144;BME280;68551;47.484;19.092;2023-04-25T16:00:29;99364.00;;;15.44;42.13
79144;BME280;68551;47.484;19.092;2023-04-25T16:03:32;99358.31;;;15.20;43.47
79144;BME280;68551;47.484;19.092;2023-04-25T16:06:40;99363.00;;;15.09;44.69
79144;BME280;68551;47.484;19.092;2023-04-25T16:09:45;99364.13;;;14.98;45.80
79144;BME280;68551;47.484;19.092;2023-04-25T16:12:48;99348.53;;;14.83;45.90
79144;BME280;68551;47.484;19.092;2023-04-25T16:15:51;99363.06;;;14.79;46.59
79144;BME280;68551;47.484;19.092;2023-04-25T16:18:53;99370.47;;;14.78;46.98
79144;BME280;68551;47.484;19.092;2023-04-25T16:21:56;99365.00;;;14.63;47.67
79144;BME280;68551;47.484;19.092;2023-04-25T16:24:58;99363.09;;;14.64;47.16
79144;BME280;68551;47.484;19.092;2023-04-25T16:28:00;99373.78;;;14.50;47.57